Troutdale, VA (24378)

12:59 PM EDT on May 29, 2015 (GMT -0400)
Matney Cabin in Mouth of Wilson | | Change Station
CLOSE
Current Station
Personal Weather Station
Location: Mouth Of Wilson, VA
Elevation: 2841 ft
Nearby Weather Stations

Elev 2841 ft 36.60 °N, 81.36 °W | Updated 4 minutes ago

Mostly Cloudy
Mostly Cloudy
70.8 °F
Feels Like 72 °F
N
3.0
Wind Variable Wind from WNW
Gusts 3.0 mph

Today
High -- | Low -- °F
--% Chance of Precip.
Yesterday
High -- | Low -- °F
Precip. -- in
6:09 AM 8:36 PM
Waxing Gibbous, 84% visible
Pressure 30.32 in
Visibility 10.0 miles
Clouds Scattered Clouds 3800 ft
Scattered Clouds 5500 ft
Mostly Cloudy 6500 ft
Heat Index 72 °F
Dew Point 63 °F
Humidity 77%
Rainfall in
Snow Depth Not available.
UV 6 out of 12
Pollen 6.50 out of 12
Air Quality Not available.
Flu Activity No Activity
METAR KMKJ 291635Z AUTO 12006KT 10SM SCT038 SCT055 BKN065 28/16 A3032 RMK AO2 LTG DSNT W T02770161

More Conditions Fewer Conditions

Pressure 30.32 in
Visibility 10.0 miles
Clouds Scattered Clouds 3800 ft
Scattered Clouds 5500 ft
Mostly Cloudy 6500 ft
Heat Index 72 °F
Dew Point 63 °F
Humidity 77%
Rainfall in
Snow Depth Not available.
UV 6 out of 12
Pollen 6.50 out of 12
Air Quality Not available.
Flu Activity No Activity
METAR KMKJ 291635Z AUTO 12006KT 10SM SCT038 SCT055 BKN065 28/16 A3032 RMK AO2 LTG DSNT W T02770161

More Conditions Fewer Conditions

10-Day Weather Forecast

Almanac

Astronomy

May. 29, 2015 Rise Set
Actual Time
Civil Twilight
Nautical Twilight
Astronomical Twilight
Moon
Length of Visible Light
Length of Day
Tomorrow will be .
, % of the Moon is Illuminated

Today's Extremes

State Highs State Lows

Community

WunderPhotos

Upload Photos

1,825,301 photos uploaded!

WunderBlogs® & News

Nearby

Air Quality

  Air Quality AQ Index Pollutant
Not available.

Snow Depth

Station Depth Elevation

Earthquake Activity

City Distance Mag. Time & Date
Minimum magnitude displayed is 2.5.

Coastal Water Temperatures

Place Temperature

Stations

Nearby Weather Stations

Station Location Temp. Windchill Dew Point Humidity Wind Precip. Elev Updated Type